createdAt,value
2022-08-29T00:00:59.409Z,16.50
2022-08-29T00:03:26.739Z,16.50
2022-08-29T00:05:53.509Z,16.50
2022-08-29T00:08:21.756Z,16.40
2022-08-29T00:10:49.193Z,16.40
2022-08-29T00:13:16.573Z,16.40
2022-08-29T00:15:45.266Z,16.40
2022-08-29T00:18:14.844Z,16.30
2022-08-29T00:20:42.194Z,16.30
2022-08-29T00:23:09.339Z,16.30
2022-08-29T00:25:36.462Z,16.20
2022-08-29T00:28:04.022Z,16.20
2022-08-29T00:30:32.064Z,16.20
2022-08-29T00:32:58.890Z,16.10
2022-08-29T00:35:34.486Z,16.10
2022-08-29T00:38:03.129Z,16.00
2022-08-29T00:40:40.679Z,16.00
2022-08-29T00:43:09.180Z,16.00
2022-08-29T00:45:38.553Z,15.90
2022-08-29T00:48:08.581Z,15.90
2022-08-29T00:50:40.935Z,15.80
2022-08-29T00:53:13.433Z,15.80
2022-08-29T00:55:40.997Z,15.70
2022-08-29T00:58:21.024Z,15.70
2022-08-29T01:00:49.322Z,15.70
2022-08-29T01:03:16.141Z,15.60
2022-08-29T01:05:43.296Z,15.60
2022-08-29T01:08:10.375Z,15.60
2022-08-29T01:10:55.920Z,15.60
2022-08-29T01:13:26.832Z,15.50
2022-08-29T01:15:54.999Z,15.50
2022-08-29T01:18:23.372Z,15.40
2022-08-29T01:21:35.533Z,15.40
2022-08-29T01:24:23.737Z,15.40
2022-08-29T01:26:50.702Z,15.30
2022-08-29T01:29:17.379Z,15.30
2022-08-29T01:31:57.032Z,15.20
2022-08-29T01:34:27.150Z,15.20
2022-08-29T01:37:04.093Z,15.20
2022-08-29T01:39:39.145Z,15.20
2022-08-29T01:42:20.506Z,15.20
2022-08-29T01:44:56.757Z,15.10
2022-08-29T01:47:26.700Z,15.10
2022-08-29T01:49:53.881Z,15.10
2022-08-29T01:52:20.786Z,15.00
2022-08-29T01:54:47.629Z,15.00
2022-08-29T01:57:16.150Z,15.00
2022-08-29T01:59:43.641Z,15.00
2022-08-29T02:02:21.724Z,15.00
2022-08-29T02:04:49.947Z,15.00
2022-08-29T02:07:19.253Z,14.90
2022-08-29T02:09:47.031Z,14.90
2022-08-29T02:12:14.928Z,14.90
2022-08-29T02:14:42.468Z,14.90
2022-08-29T02:17:09.282Z,14.90
2022-08-29T02:19:37.481Z,14.90
2022-08-29T02:22:05.374Z,14.90
2022-08-29T02:24:32.794Z,14.90
2022-08-29T02:27:00.005Z,14.90
2022-08-29T02:29:37.406Z,14.80
2022-08-29T02:32:07.031Z,14.80
2022-08-29T02:34:34.825Z,14.80
2022-08-29T02:37:01.601Z,14.80
2022-08-29T02:39:28.465Z,14.80
2022-08-29T02:41:55.229Z,14.80
2022-08-29T02:44:22.053Z,14.80
2022-08-29T02:46:49.054Z,14.80
2022-08-29T02:49:16.288Z,14.80
2022-08-29T02:51:43.638Z,14.70
2022-08-29T02:54:12.100Z,14.70
2022-08-29T02:56:39.229Z,14.70
2022-08-29T02:59:08.337Z,14.70
2022-08-29T03:01:36.283Z,14.60
2022-08-29T03:04:03.443Z,14.60
2022-08-29T03:06:30.172Z,14.60
2022-08-29T03:08:56.937Z,14.60
2022-08-29T03:11:24.066Z,14.60
2022-08-29T03:13:50.891Z,14.50
2022-08-29T03:16:18.304Z,14.50
2022-08-29T03:18:45.166Z,14.50
2022-08-29T03:21:20.490Z,14.50
2022-08-29T03:23:48.542Z,14.50
2022-08-29T03:26:18.892Z,14.50
2022-08-29T03:28:46.394Z,14.40
2022-08-29T03:31:13.276Z,14.40
2022-08-29T03:33:40.309Z,14.40
2022-08-29T03:36:14.248Z,14.40
2022-08-29T03:38:42.588Z,14.40
2022-08-29T03:41:09.935Z,14.40
2022-08-29T03:43:39.873Z,14.30
2022-08-29T03:46:06.696Z,14.30
2022-08-29T03:48:33.766Z,14.30
2022-08-29T03:51:00.784Z,14.30
2022-08-29T03:53:27.607Z,14.30
2022-08-29T03:55:54.867Z,14.30
2022-08-29T03:58:21.832Z,14.20
2022-08-29T04:00:48.589Z,14.20
2022-08-29T04:03:15.549Z,14.20
2022-08-29T04:05:42.916Z,14.10
2022-08-29T04:08:09.655Z,14.10
2022-08-29T04:10:38.493Z,14.10
2022-08-29T04:13:07.292Z,14.00
2022-08-29T04:15:35.490Z,14.00
2022-08-29T04:18:04.562Z,14.00
2022-08-29T04:20:39.252Z,14.00
2022-08-29T04:23:07.081Z,13.90
2022-08-29T04:25:37.324Z,13.90
2022-08-29T04:28:12.441Z,13.90
2022-08-29T04:30:39.720Z,13.80
2022-08-29T04:33:06.808Z,13.80
2022-08-29T04:35:34.984Z,13.80
2022-08-29T04:38:01.789Z,13.80
2022-08-29T04:40:28.601Z,13.80
2022-08-29T04:42:55.603Z,13.80
2022-08-29T04:45:23.152Z,13.70
2022-08-29T04:47:49.902Z,13.70
2022-08-29T04:50:20.572Z,13.70
2022-08-29T04:52:48.753Z,13.70
2022-08-29T04:55:21.449Z,13.70
2022-08-29T04:57:50.675Z,13.60
2022-08-29T05:00:23.178Z,13.60
2022-08-29T05:02:49.934Z,13.60
2022-08-29T05:05:17.847Z,13.60
2022-08-29T05:07:46.519Z,13.70
2022-08-29T05:10:17.320Z,13.70
2022-08-29T05:12:45.719Z,13.70
2022-08-29T05:15:13.996Z,13.70
2022-08-29T05:17:41.132Z,13.70
2022-08-29T05:20:08.636Z,13.70
2022-08-29T05:22:35.768Z,13.70
2022-08-29T05:25:04.904Z,13.80
2022-08-29T05:27:31.692Z,13.80
2022-08-29T05:29:58.496Z,13.80
2022-08-29T05:32:25.579Z,13.90
2022-08-29T05:34:52.443Z,13.90
2022-08-29T05:37:20.985Z,14.00
2022-08-29T05:39:49.341Z,14.00
2022-08-29T05:42:19.967Z,14.00
2022-08-29T05:44:47.063Z,14.10
2022-08-29T05:47:19.502Z,14.20
2022-08-29T05:49:47.666Z,14.30
2022-08-29T05:52:17.940Z,14.40
2022-08-29T05:54:45.670Z,14.40
2022-08-29T05:57:18.999Z,14.50
2022-08-29T05:59:47.515Z,14.60
2022-08-29T06:02:14.610Z,14.70
2022-08-29T06:04:42.040Z,14.80
2022-08-29T06:07:09.559Z,14.90
2022-08-29T06:09:37.559Z,15.00
2022-08-29T06:12:05.766Z,15.10
2022-08-29T06:14:33.080Z,15.20
2022-08-29T06:17:01.714Z,15.30
2022-08-29T06:19:31.355Z,15.30
2022-08-29T06:21:58.322Z,15.40
2022-08-29T06:24:25.123Z,15.40
2022-08-29T06:26:52.168Z,15.50
2022-08-29T06:29:18.930Z,15.60
2022-08-29T06:31:46.055Z,15.60
2022-08-29T06:34:12.924Z,15.60
2022-08-29T06:36:40.133Z,15.70
2022-08-29T06:39:11.246Z,15.70
2022-08-29T06:41:41.209Z,15.80
2022-08-29T06:44:08.926Z,15.90
2022-08-29T06:46:42.347Z,15.90
2022-08-29T06:49:15.390Z,16.00
2022-08-29T06:51:44.836Z,16.10
2022-08-29T06:54:12.973Z,16.10
2022-08-29T06:56:42.337Z,16.20
2022-08-29T06:59:09.853Z,16.30
2022-08-29T07:01:36.729Z,16.50
2022-08-29T07:04:04.582Z,16.60
2022-08-29T07:06:32.451Z,16.70
2022-08-29T07:08:59.755Z,16.80
2022-08-29T07:11:30.095Z,16.90
2022-08-29T07:13:59.066Z,17.00
2022-08-29T07:16:26.568Z,17.10
2022-08-29T07:18:54.309Z,17.30
2022-08-29T07:21:23.577Z,17.40
2022-08-29T07:23:51.931Z,17.50
2022-08-29T07:26:20.489Z,17.70
2022-08-29T07:28:49.482Z,17.80
2022-08-29T07:31:17.054Z,18.00
2022-08-29T07:33:43.825Z,18.20
2022-08-29T07:36:10.867Z,18.40
2022-08-29T07:38:38.395Z,18.60
2022-08-29T07:41:10.199Z,18.80
2022-08-29T07:43:37.860Z,19.10
2022-08-29T07:46:22.812Z,19.50
2022-08-29T07:48:49.827Z,20.00
2022-08-29T07:51:18.809Z,20.30
2022-08-29T07:53:46.619Z,20.60
2022-08-29T07:56:19.573Z,20.80
2022-08-29T07:58:46.868Z,20.90
2022-08-29T08:01:14.824Z,20.90
2022-08-29T08:03:50.918Z,20.90
2022-08-29T08:06:19.833Z,20.90
2022-08-29T08:08:47.235Z,21.00
2022-08-29T08:11:14.681Z,21.00
2022-08-29T08:13:41.901Z,21.00
2022-08-29T08:16:12.468Z,21.10
2022-08-29T08:18:40.541Z,21.20
2022-08-29T08:21:07.996Z,21.20
2022-08-29T08:23:35.067Z,21.40
2022-08-29T08:26:04.461Z,21.60
2022-08-29T08:28:31.364Z,21.70
2022-08-29T08:31:05.133Z,21.90
2022-08-29T08:33:35.573Z,22.10
2022-08-29T08:36:04.264Z,22.20
2022-08-29T08:38:31.598Z,22.40
2022-08-29T08:41:10.793Z,22.50
2022-08-29T08:43:50.016Z,22.60
2022-08-29T08:46:18.648Z,22.90
2022-08-29T08:48:48.476Z,23.00
2022-08-29T08:51:24.713Z,23.20
2022-08-29T08:53:56.534Z,23.30
2022-08-29T08:56:33.952Z,23.40
2022-08-29T08:59:31.516Z,23.60
2022-08-29T09:02:01.645Z,23.70
2022-08-29T09:04:58.340Z,23.70
2022-08-29T09:07:56.926Z,23.70
2022-08-29T09:10:49.421Z,23.70
2022-08-29T09:13:46.721Z,23.60
2022-08-29T09:16:27.488Z,23.60
2022-08-29T09:19:00.666Z,23.60
2022-08-29T09:21:43.153Z,23.60
2022-08-29T09:24:16.999Z,23.60
2022-08-29T09:26:44.384Z,23.60
2022-08-29T09:29:13.892Z,23.60
2022-08-29T09:31:41.285Z,23.60
2022-08-29T09:34:12.727Z,23.50
2022-08-29T09:36:42.649Z,23.50
2022-08-29T09:39:32.479Z,23.40
2022-08-29T09:42:14.892Z,23.30
2022-08-29T09:44:51.215Z,23.30
2022-08-29T09:47:23.940Z,23.30
2022-08-29T09:50:08.783Z,23.40
2022-08-29T09:52:39.948Z,23.60
2022-08-29T09:55:32.898Z,23.80
2022-08-29T09:58:01.507Z,24.00
2022-08-29T10:00:33.515Z,24.20
2022-08-29T10:03:03.187Z,24.30
2022-08-29T10:05:44.640Z,24.40
2022-08-29T10:08:31.657Z,24.60
2022-08-29T10:11:02.776Z,24.80
2022-08-29T10:13:54.540Z,24.90
2022-08-29T10:16:40.696Z,25.00
2022-08-29T10:19:13.967Z,25.00
2022-08-29T10:21:55.193Z,25.10
2022-08-29T10:24:53.122Z,25.10
2022-08-29T10:27:40.397Z,25.20
2022-08-29T10:30:55.559Z,25.50
2022-08-29T10:33:39.939Z,25.90
2022-08-29T10:36:22.762Z,26.40
2022-08-29T10:39:02.507Z,26.80
2022-08-29T10:41:51.103Z,27.00
2022-08-29T10:44:40.098Z,27.10
2022-08-29T10:47:29.285Z,27.10
2022-08-29T10:50:03.637Z,27.30
2022-08-29T10:52:31.486Z,27.50
2022-08-29T10:55:19.807Z,27.60
2022-08-29T10:58:12.559Z,27.90
2022-08-29T11:00:42.357Z,28.20
2022-08-29T11:03:36.315Z,28.50
2022-08-29T11:06:30.357Z,28.80
2022-08-29T11:09:09.358Z,29.10
2022-08-29T11:11:40.225Z,29.50
2022-08-29T11:14:21.838Z,29.60
2022-08-29T11:16:51.673Z,29.70
2022-08-29T11:19:27.854Z,29.90
2022-08-29T11:22:12.763Z,30.10
2022-08-29T11:24:46.408Z,30.20
2022-08-29T11:27:22.471Z,30.20
2022-08-29T11:29:59.446Z,30.10
2022-08-29T11:32:50.812Z,29.90
2022-08-29T11:35:56.399Z,29.50
2022-08-29T11:38:29.279Z,29.40
2022-08-29T11:41:28.775Z,29.40
2022-08-29T11:44:16.872Z,29.60
2022-08-29T11:46:48.992Z,29.70
2022-08-29T11:49:40.096Z,29.80
2022-08-29T11:52:12.745Z,30.10
2022-08-29T11:54:39.931Z,30.30
2022-08-29T11:57:09.461Z,30.50
2022-08-29T11:59:48.790Z,30.60
2022-08-29T12:02:27.835Z,30.60
2022-08-29T12:04:58.633Z,30.40
2022-08-29T12:07:49.050Z,30.10
2022-08-29T12:10:24.654Z,29.90
2022-08-29T12:13:03.187Z,29.80
2022-08-29T12:15:32.917Z,29.70
2022-08-29T12:18:19.525Z,29.70
2022-08-29T12:20:55.667Z,30.10
2022-08-29T12:23:36.542Z,30.30
2022-08-29T12:26:52.737Z,30.20
2022-08-29T12:29:43.725Z,30.00
2022-08-29T12:32:39.777Z,29.70
2022-08-29T12:35:06.972Z,29.70
2022-08-29T12:37:43.580Z,29.60
2022-08-29T12:40:29.213Z,29.60
2022-08-29T12:43:24.271Z,29.70
2022-08-29T12:45:51.674Z,29.90
2022-08-29T12:48:25.548Z,30.00
2022-08-29T12:50:53.857Z,30.00
2022-08-29T12:53:34.920Z,30.00
2022-08-29T12:56:12.614Z,29.90
2022-08-29T12:59:04.095Z,29.70
2022-08-29T13:01:38.102Z,29.50
2022-08-29T13:04:10.781Z,29.40
2022-08-29T13:06:55.498Z,29.40
2022-08-29T13:09:40.116Z,29.50
2022-08-29T13:12:07.996Z,29.80
2022-08-29T13:14:51.170Z,30.10
2022-08-29T13:17:20.608Z,30.40
2022-08-29T13:20:25.635Z,30.70
2022-08-29T13:23:10.315Z,30.90
2022-08-29T13:25:48.230Z,31.10
2022-08-29T13:28:22.767Z,31.30
2022-08-29T13:31:14.233Z,31.50
2022-08-29T13:34:20.674Z,31.70
2022-08-29T13:37:01.095Z,31.80
2022-08-29T13:39:35.131Z,31.90
2022-08-29T13:42:13.990Z,32.00
2022-08-29T13:44:49.580Z,32.00
2022-08-29T13:47:46.195Z,31.70
2022-08-29T13:50:15.205Z,31.40
2022-08-29T13:52:42.048Z,31.10
2022-08-29T13:55:10.093Z,30.90
2022-08-29T13:57:40.595Z,30.80
2022-08-29T14:00:08.924Z,30.90
2022-08-29T14:02:39.271Z,31.00
2022-08-29T14:05:10.410Z,31.10
2022-08-29T14:07:39.073Z,31.20
2022-08-29T14:10:07.491Z,31.40
2022-08-29T14:12:34.691Z,31.50
2022-08-29T14:15:09.378Z,31.60
2022-08-29T14:17:40.988Z,31.70
2022-08-29T14:20:12.560Z,31.90
2022-08-29T14:22:39.661Z,32.10
2022-08-29T14:25:08.233Z,32.00
2022-08-29T14:27:36.663Z,32.00
2022-08-29T14:30:08.335Z,31.90
2022-08-29T14:32:35.435Z,31.70
2022-08-29T14:35:03.907Z,31.50
2022-08-29T14:37:34.847Z,31.40
2022-08-29T14:40:02.477Z,31.30
2022-08-29T14:42:30.703Z,31.40
2022-08-29T14:44:57.479Z,31.30
2022-08-29T14:47:24.253Z,31.30
2022-08-29T14:49:51.103Z,31.30
2022-08-29T14:52:17.883Z,31.30
2022-08-29T14:54:44.797Z,31.30
2022-08-29T14:57:12.435Z,31.30
2022-08-29T14:59:39.906Z,31.30
2022-08-29T15:02:09.950Z,31.30
2022-08-29T15:04:37.904Z,31.30
2022-08-29T15:07:07.142Z,31.30
2022-08-29T15:09:34.245Z,31.30
2022-08-29T15:12:02.261Z,31.20
2022-08-29T15:14:29.359Z,31.10
2022-08-29T15:16:56.192Z,31.00
2022-08-29T15:22:11.220Z,30.90
2022-08-29T15:24:38.762Z,30.90
2022-08-29T15:27:06.650Z,30.90
2022-08-29T15:29:33.629Z,30.90
2022-08-29T15:32:00.625Z,30.90
2022-08-29T15:34:29.083Z,30.90
2022-08-29T15:36:56.879Z,30.90
2022-08-29T15:39:27.955Z,30.80
2022-08-29T15:41:56.443Z,30.80
2022-08-29T15:44:23.732Z,30.70
2022-08-29T15:46:52.578Z,30.70
2022-08-29T15:49:21.724Z,30.60
2022-08-29T15:51:48.897Z,30.50
2022-08-29T15:54:16.200Z,30.50
2022-08-29T15:56:43.595Z,30.40
2022-08-29T15:59:12.147Z,30.30
2022-08-29T16:01:51.401Z,30.20
2022-08-29T16:04:20.681Z,30.20
2022-08-29T16:06:47.524Z,30.10
2022-08-29T16:09:16.177Z,30.00
2022-08-29T16:11:47.631Z,30.00
2022-08-29T16:17:05.440Z,29.80
2022-08-29T16:19:32.862Z,29.60
2022-08-29T16:22:04.197Z,29.40
2022-08-29T16:24:32.211Z,29.30
2022-08-29T16:26:59.934Z,29.10
2022-08-29T16:29:27.319Z,28.90
2022-08-29T16:32:00.590Z,28.80
2022-08-29T16:34:28.519Z,28.70
2022-08-29T16:36:56.921Z,28.60
2022-08-29T16:39:23.702Z,28.50
2022-08-29T16:41:50.961Z,28.40
2022-08-29T16:44:17.982Z,28.30
2022-08-29T16:46:44.995Z,28.20
2022-08-29T16:49:11.773Z,28.10
2022-08-29T16:51:38.605Z,28.00
2022-08-29T16:54:05.587Z,27.80
2022-08-29T16:56:32.920Z,27.70
2022-08-29T16:59:00.371Z,27.60
2022-08-29T17:01:56.623Z,27.40
2022-08-29T17:04:27.632Z,27.30
2022-08-29T17:06:55.765Z,27.20
2022-08-29T17:09:25.501Z,27.10
2022-08-29T17:11:53.750Z,27.00
2022-08-29T17:14:24.319Z,26.90
2022-08-29T17:16:53.679Z,26.80
2022-08-29T17:19:22.225Z,26.70
2022-08-29T17:21:49.338Z,26.50
2022-08-29T17:24:16.491Z,26.40
2022-08-29T17:26:46.355Z,26.30
2022-08-29T17:29:13.679Z,26.10
2022-08-29T17:31:40.509Z,26.00
2022-08-29T17:34:08.687Z,26.00
2022-08-29T17:36:36.899Z,25.90
2022-08-29T17:39:05.581Z,25.80
2022-08-29T17:41:33.333Z,25.70
2022-08-29T17:44:02.091Z,25.60
2022-08-29T17:46:29.731Z,25.50
2022-08-29T17:48:56.682Z,25.30
2022-08-29T17:51:23.562Z,25.30
2022-08-29T17:53:51.588Z,25.20
2022-08-29T17:56:25.122Z,25.10
2022-08-29T17:58:51.827Z,25.00
2022-08-29T18:01:18.663Z,24.90
2022-08-29T18:03:45.611Z,24.80
2022-08-29T18:06:14.761Z,24.70
2022-08-29T18:08:48.197Z,24.60
2022-08-29T18:11:16.728Z,24.50
2022-08-29T18:13:43.773Z,24.40
2022-08-29T18:16:11.770Z,24.30
2022-08-29T18:18:38.980Z,24.20
2022-08-29T18:21:06.043Z,24.10
2022-08-29T18:23:33.400Z,23.90
2022-08-29T18:26:00.515Z,23.80
2022-08-29T18:28:27.708Z,23.70
2022-08-29T18:30:54.803Z,23.60
2022-08-29T18:33:23.215Z,23.50
2022-08-29T18:35:51.887Z,23.50
2022-08-29T18:38:18.966Z,23.30
2022-08-29T18:40:46.851Z,23.30
2022-08-29T18:43:18.586Z,23.20
2022-08-29T18:45:45.571Z,23.10
2022-08-29T18:48:12.834Z,23.00
2022-08-29T18:50:40.214Z,22.90
2022-08-29T18:53:21.476Z,22.80
2022-08-29T18:55:52.407Z,22.70
2022-08-29T18:58:25.373Z,22.60
2022-08-29T19:00:53.109Z,22.50
2022-08-29T19:03:20.837Z,22.50
2022-08-29T19:05:49.937Z,22.40
2022-08-29T19:08:24.566Z,22.30
2022-08-29T19:10:53.857Z,22.20
2022-08-29T19:13:25.357Z,22.10
2022-08-29T19:15:56.209Z,22.10
2022-08-29T19:18:23.070Z,22.00
2022-08-29T19:21:10.849Z,21.90
2022-08-29T19:23:47.541Z,21.90
2022-08-29T19:26:23.990Z,21.80
2022-08-29T19:28:53.089Z,21.70
2022-08-29T19:31:22.768Z,21.70
2022-08-29T19:33:49.924Z,21.60
2022-08-29T19:36:17.745Z,21.60
2022-08-29T19:38:47.207Z,21.50
2022-08-29T19:41:15.471Z,21.40
2022-08-29T19:43:42.520Z,21.40
2022-08-29T19:46:17.924Z,21.30
2022-08-29T19:48:45.203Z,21.30
2022-08-29T19:51:19.294Z,21.20
2022-08-29T19:53:48.221Z,21.10
2022-08-29T19:56:14.932Z,21.10
2022-08-29T19:58:42.656Z,21.10
2022-08-29T20:01:10.160Z,21.00
2022-08-29T20:03:39.346Z,21.00
2022-08-29T20:06:07.663Z,20.90
2022-08-29T20:08:41.620Z,20.90
2022-08-29T20:11:23.568Z,20.90
2022-08-29T20:13:52.405Z,20.80
2022-08-29T20:16:23.008Z,20.80
2022-08-29T20:18:50.732Z,20.70
2022-08-29T20:21:19.334Z,20.70
2022-08-29T20:23:49.410Z,20.60
2022-08-29T20:26:17.989Z,20.60
2022-08-29T20:28:45.068Z,20.50
2022-08-29T20:31:12.683Z,20.50
2022-08-29T20:33:41.375Z,20.50
2022-08-29T20:36:27.088Z,20.40
2022-08-29T20:38:54.298Z,20.40
2022-08-29T20:41:21.795Z,20.40
2022-08-29T20:43:51.483Z,20.30
2022-08-29T20:46:18.307Z,20.30
2022-08-29T20:48:45.200Z,20.20
2022-08-29T20:51:12.116Z,20.20
2022-08-29T20:53:40.611Z,20.10
2022-08-29T20:56:07.714Z,20.10
2022-08-29T20:58:35.630Z,20.00
2022-08-29T21:01:02.908Z,20.00
2022-08-29T21:03:48.536Z,20.00
2022-08-29T21:06:18.477Z,19.90
2022-08-29T21:08:45.207Z,19.90
2022-08-29T21:11:14.423Z,19.90
2022-08-29T21:13:43.393Z,19.80
2022-08-29T21:16:11.233Z,19.80
2022-08-29T21:18:38.521Z,19.80
2022-08-29T21:21:05.609Z,19.80
2022-08-29T21:23:32.530Z,19.70
2022-08-29T21:26:01.091Z,19.70
2022-08-29T21:28:28.963Z,19.70
2022-08-29T21:30:58.137Z,19.70
2022-08-29T21:33:25.123Z,19.60
2022-08-29T21:35:52.132Z,19.60
2022-08-29T21:38:18.905Z,19.60
2022-08-29T21:40:51.176Z,19.50
2022-08-29T21:43:19.936Z,19.50
2022-08-29T21:45:47.795Z,19.50
2022-08-29T21:48:14.801Z,19.40
2022-08-29T21:50:41.645Z,19.40
2022-08-29T21:53:11.777Z,19.40
2022-08-29T21:55:38.645Z,19.30
2022-08-29T21:58:05.522Z,19.30
2022-08-29T22:00:42.012Z,19.30
2022-08-29T22:03:12.212Z,19.30
2022-08-29T22:05:43.675Z,19.20
2022-08-29T22:08:13.965Z,19.20
2022-08-29T22:10:44.255Z,19.10
2022-08-29T22:13:11.150Z,19.10
2022-08-29T22:15:56.439Z,19.10
2022-08-29T22:18:23.444Z,19.10
2022-08-29T22:20:55.089Z,19.00
2022-08-29T22:23:24.562Z,19.00
2022-08-29T22:25:52.525Z,18.90
2022-08-29T22:28:20.028Z,18.90
2022-08-29T22:30:46.875Z,18.90
2022-08-29T22:33:16.771Z,18.90
2022-08-29T22:35:43.902Z,18.80
2022-08-29T22:38:10.776Z,18.80
2022-08-29T22:40:37.819Z,18.70
2022-08-29T22:43:04.863Z,18.70
2022-08-29T22:45:33.448Z,18.70
2022-08-29T22:48:00.180Z,18.70
2022-08-29T22:50:27.082Z,18.70
2022-08-29T22:52:58.130Z,18.70
2022-08-29T22:57:51.716Z,18.60
2022-08-29T23:00:22.385Z,18.60
2022-08-29T23:02:50.186Z,18.50
2022-08-29T23:05:18.159Z,18.50
2022-08-29T23:07:45.411Z,18.50
2022-08-29T23:10:13.883Z,18.50
2022-08-29T23:12:41.206Z,18.40
2022-08-29T23:15:12.194Z,18.40
2022-08-29T23:17:39.720Z,18.40
2022-08-29T23:20:09.276Z,18.30
2022-08-29T23:22:38.723Z,18.30
2022-08-29T23:25:07.405Z,18.30
2022-08-29T23:27:34.716Z,18.20
2022-08-29T23:30:02.486Z,18.20
2022-08-29T23:32:29.573Z,18.10
2022-08-29T23:34:56.596Z,18.10
2022-08-29T23:37:23.827Z,18.10
2022-08-29T23:39:50.946Z,18.10
2022-08-29T23:42:20.828Z,18.00
2022-08-29T23:44:48.410Z,18.00
2022-08-29T23:47:16.039Z,18.00
2022-08-29T23:49:42.791Z,18.00
2022-08-29T23:52:09.674Z,18.00
2022-08-29T23:54:36.818Z,17.90
2022-08-29T23:57:04.216Z,17.90
2022-08-29T23:59:52.080Z,17.90
